Time;durP1;ratioP1;P1;durP2;ratioP2;P2;SDS_P1;SDS_P2;PMS_P1;PMS_P2;Temp;Humidity;BMP_temperature;BMP_pressure;BME280_temperature;BME280_humidity;BME280_pressure;Samples;Min_cycle;Max_cycle;Signal;HPM_P1;HPM_P2
2023/07/25 00:02:03;;;;;;;1.93;1.37;;;24.30;96.00;;;;;;4936374;29;20454;-91
2023/07/25 00:04:30;;;;;;;1.50;1.40;;;24.30;95.90;;;;;;4936625;29;20473;-90
2023/07/25 00:06:57;;;;;;;1.20;1.10;;;24.30;96.00;;;;;;4936448;29;20482;-90
2023/07/25 00:09:24;;;;;;;1.50;1.10;;;24.30;96.10;;;;;;4936631;29;20439;-90
2023/07/25 00:11:52;;;;;;;1.40;1.30;;;24.30;95.80;;;;;;4936498;29;20792;-87
2023/07/25 00:14:18;;;;;;;1.30;1.20;;;24.30;95.70;;;;;;4936134;29;20940;-89
2023/07/25 00:16:45;;;;;;;1.27;1.17;;;24.30;95.80;;;;;;4936158;29;21011;-89
2023/07/25 00:19:12;;;;;;;1.30;1.20;;;24.30;96.00;;;;;;4936499;29;20542;-89
2023/07/25 00:21:39;;;;;;;1.80;1.70;;;24.30;95.90;;;;;;4936428;29;20451;-88
2023/07/25 00:24:06;;;;;;;1.30;1.20;;;24.30;96.00;;;;;;4936151;29;20451;-87
2023/07/25 00:26:32;;;;;;;1.20;1.10;;;24.30;95.90;;;;;;4936352;29;20461;-88
2023/07/25 00:29:01;;;;;;;1.50;1.30;;;24.40;96.10;;;;;;4936338;29;20442;-87
2023/07/25 00:31:27;;;;;;;1.20;0.90;;;24.30;95.80;;;;;;4935952;29;20987;-87
2023/07/25 00:33:54;;;;;;;1.00;0.90;;;24.30;95.90;;;;;;4936176;29;20533;-87
2023/07/25 00:36:21;;;;;;;1.33;1.00;;;24.30;95.90;;;;;;4936174;29;20501;-87
2023/07/25 00:38:48;;;;;;;1.30;1.07;;;24.40;95.80;;;;;;4936280;29;20447;-86
2023/07/25 00:41:15;;;;;;;1.20;1.10;;;24.30;96.10;;;;;;4939801;29;21053;-87
2023/07/25 00:43:41;;;;;;;1.20;1.00;;;24.30;96.00;;;;;;4939831;29;20461;-87
2023/07/25 00:46:10;;;;;;;1.30;1.10;;;24.30;95.80;;;;;;4939671;29;20549;-88
2023/07/25 00:48:36;;;;;;;1.23;1.13;;;24.30;96.00;;;;;;4939903;29;20452;-88
2023/07/25 00:51:04;;;;;;;1.70;1.20;;;24.40;96.00;;;;;;4939876;29;20454;-87
2023/07/25 00:53:31;;;;;;;1.10;1.00;;;24.30;96.00;;;;;;4939917;29;20454;-87
2023/07/25 00:55:58;;;;;;;2.50;1.20;;;24.30;95.90;;;;;;4939721;29;20497;-87
2023/07/25 00:58:25;;;;;;;1.40;1.30;;;24.20;95.80;;;;;;4939451;29;20453;-87
2023/07/25 01:00:52;;;;;;;2.10;1.13;;;24.20;95.90;;;;;;4939639;29;20451;-87
2023/07/25 01:03:20;;;;;;;1.23;1.10;;;24.30;95.90;;;;;;4939545;29;20865;-87
2023/07/25 01:05:50;;;;;;;1.30;1.10;;;24.20;95.80;;;;;;4939689;29;20452;-87
2023/07/25 01:08:16;;;;;;;1.40;0.90;;;24.20;95.80;;;;;;4939298;29;20502;-87
2023/07/25 01:10:43;;;;;;;1.23;1.13;;;24.20;95.80;;;;;;4939302;29;21052;-87
2023/07/25 01:13:10;;;;;;;1.27;1.00;;;24.30;95.80;;;;;;4939317;29;20443;-87
2023/07/25 01:15:37;;;;;;;1.40;1.10;;;24.30;95.80;;;;;;4939189;29;20581;-88
2023/07/25 01:18:06;;;;;;;1.40;1.30;;;24.20;95.90;;;;;;4939542;29;20804;-88
2023/07/25 01:20:36;;;;;;;1.40;1.00;;;24.20;95.90;;;;;;4939166;29;20438;-87
2023/07/25 01:23:05;;;;;;;1.10;1.00;;;24.20;95.80;;;;;;4939161;29;20439;-87
2023/07/25 01:25:33;;;;;;;1.40;1.10;;;24.20;95.90;;;;;;4938958;29;20945;-87
2023/07/25 01:28:00;;;;;;;1.30;1.17;;;24.20;95.80;;;;;;4939313;29;20446;-87
2023/07/25 01:30:27;;;;;;;1.10;0.90;;;24.20;95.70;;;;;;4939116;29;20454;-88
2023/07/25 01:32:55;;;;;;;1.10;0.90;;;24.20;95.70;;;;;;4939133;29;20449;-87
2023/07/25 01:35:22;;;;;;;1.50;1.40;;;24.20;95.70;;;;;;4939087;29;20503;-87
2023/07/25 01:37:49;;;;;;;1.40;1.00;;;24.20;95.70;;;;;;4938607;29;20452;-87
2023/07/25 01:40:16;;;;;;;1.10;1.00;;;24.20;95.70;;;;;;4939218;29;20450;-88
2023/07/25 01:42:44;;;;;;;1.20;1.03;;;24.20;95.80;;;;;;4938816;29;20929;-87
2023/07/25 01:45:12;;;;;;;1.10;1.00;;;24.20;95.70;;;;;;4938756;29;20451;-87
2023/07/25 01:47:38;;;;;;;1.27;1.17;;;24.20;95.70;;;;;;4939535;29;20509;-87
2023/07/25 01:50:06;;;;;;;1.23;1.13;;;24.20;95.80;;;;;;4938822;29;20442;-87
2023/07/25 01:52:33;;;;;;;1.30;1.20;;;24.20;95.70;;;;;;4938020;29;20809;-87
2023/07/25 01:55:00;;;;;;;1.30;1.20;;;24.20;95.60;;;;;;4938525;29;20445;-88
2023/07/25 01:57:26;;;;;;;1.10;1.00;;;24.20;95.60;;;;;;4938745;29;20454;-87
2023/07/25 01:59:54;;;;;;;1.20;1.10;;;24.20;95.60;;;;;;4938532;29;20446;-88
2023/07/25 02:02:21;;;;;;;1.33;1.07;;;24.20;95.60;;;;;;4938406;29;20458;-87
2023/07/25 02:04:48;;;;;;;1.10;0.90;;;24.20;95.60;;;;;;4938656;29;20874;-87
2023/07/25 02:07:15;;;;;;;1.10;0.90;;;24.20;95.50;;;;;;4938305;29;20544;-88
2023/07/25 02:09:42;;;;;;;1.67;1.00;;;24.20;95.50;;;;;;4938324;29;20450;-87
2023/07/25 02:12:09;;;;;;;2.07;1.10;;;24.20;95.60;;;;;;4938504;29;20531;-87
2023/07/25 02:14:36;;;;;;;1.30;1.17;;;24.20;95.70;;;;;;4938351;29;20448;-87
2023/07/25 02:17:05;;;;;;;1.60;1.30;;;24.20;96.10;;;;;;4938716;29;20504;-87
2023/07/25 02:19:32;;;;;;;1.17;1.07;;;24.20;95.70;;;;;;4938062;29;20454;-87
2023/07/25 02:21:58;;;;;;;1.07;0.90;;;24.30;95.70;;;;;;4938174;29;20830;-87
2023/07/25 02:24:25;;;;;;;1.30;1.20;;;24.20;95.70;;;;;;4938103;29;20496;-87
2023/07/25 02:26:52;;;;;;;1.10;0.90;;;24.20;95.60;;;;;;4937950;29;20946;-87
2023/07/25 02:29:19;;;;;;;2.23;1.13;;;24.20;95.70;;;;;;4938031;29;20447;-87
2023/07/25 02:31:46;;;;;;;1.10;1.00;;;24.20;95.70;;;;;;4937628;29;20482;-87
2023/07/25 02:34:16;;;;;;;1.13;0.90;;;24.20;95.60;;;;;;4937816;29;20449;-87
2023/07/25 02:36:42;;;;;;;1.37;0.97;;;24.20;95.70;;;;;;4937958;29;20498;-87
2023/07/25 02:39:09;;;;;;;1.00;0.90;;;24.20;95.70;;;;;;4937739;29;20466;-87
2023/07/25 02:41:36;;;;;;;1.20;0.87;;;24.20;95.70;;;;;;4937562;29;20498;-87
2023/07/25 02:44:04;;;;;;;1.43;1.10;;;24.20;96.10;;;;;;4938020;29;20525;-87
2023/07/25 02:46:31;;;;;;;1.10;0.90;;;24.20;95.70;;;;;;4937597;29;20470;-87
2023/07/25 02:48:57;;;;;;;1.10;1.00;;;24.20;95.60;;;;;;4937847;29;20486;-87
2023/07/25 02:51:25;;;;;;;1.23;1.07;;;24.20;95.80;;;;;;4937678;29;20457;-87
2023/07/25 02:53:52;;;;;;;1.03;0.90;;;24.20;95.60;;;;;;4937450;29;20449;-87
2023/07/25 02:56:20;;;;;;;1.27;1.00;;;24.20;95.60;;;;;;4937210;29;20493;-87
2023/07/25 02:58:46;;;;;;;1.20;1.00;;;24.10;95.50;;;;;;4937348;29;20453;-87
2023/07/25 03:01:13;;;;;;;1.20;0.90;;;24.20;95.50;;;;;;4937587;29;20447;-87
2023/07/25 03:03:40;;;;;;;1.10;0.90;;;24.20;95.40;;;;;;4936330;29;20452;-87
2023/07/25 03:06:07;;;;;;;1.10;1.00;;;24.10;95.30;;;;;;4937180;29;20955;-87
2023/07/25 03:08:35;;;;;;;1.10;0.90;;;24.10;95.20;;;;;;4937038;29;20564;-87
2023/07/25 03:11:02;;;;;;;1.10;0.87;;;24.20;95.40;;;;;;4937305;29;20447;-87
2023/07/25 03:13:28;;;;;;;1.20;1.00;;;24.10;95.40;;;;;;4937029;29;20450;-87
2023/07/25 03:15:55;;;;;;;1.30;1.00;;;24.10;95.40;;;;;;4936966;29;20871;-86
2023/07/25 03:18:22;;;;;;;1.40;1.13;;;24.10;95.60;;;;;;4937082;29;20451;-87
2023/07/25 03:20:49;;;;;;;1.20;0.90;;;24.10;95.30;;;;;;4937067;29;20453;-87
2023/07/25 03:23:15;;;;;;;1.87;1.00;;;24.10;95.40;;;;;;4936974;29;20451;-87
2023/07/25 03:25:44;;;;;;;1.20;0.93;;;24.20;95.40;;;;;;4936748;29;20997;-87
2023/07/25 03:28:10;;;;;;;1.03;0.87;;;24.10;95.40;;;;;;4936788;29;20779;-87
2023/07/25 03:30:37;;;;;;;1.30;1.00;;;24.10;95.40;;;;;;4936917;29;20455;-87
2023/07/25 03:33:04;;;;;;;1.23;1.00;;;24.10;95.40;;;;;;4937350;29;20475;-88
2023/07/25 03:35:31;;;;;;;1.10;0.90;;;24.10;95.30;;;;;;4936945;29;20866;-87
2023/07/25 03:37:57;;;;;;;1.20;1.10;;;24.10;95.30;;;;;;4936875;29;20449;-87
2023/07/25 03:40:24;;;;;;;1.20;1.10;;;24.10;95.30;;;;;;4936564;29;20456;-87
2023/07/25 03:42:52;;;;;;;1.10;0.90;;;24.10;95.20;;;;;;4936589;29;20438;-87
2023/07/25 03:45:19;;;;;;;1.30;1.20;;;24.10;95.20;;;;;;4936919;29;20477;-87
2023/07/25 03:47:46;;;;;;;1.20;1.10;;;24.10;95.20;;;;;;4936550;29;20460;-86
2023/07/25 03:50:13;;;;;;;1.20;1.00;;;24.10;95.30;;;;;;4936397;29;20459;-87
2023/07/25 03:52:40;;;;;;;1.20;1.10;;;24.10;95.20;;;;;;4936464;29;20545;-88
2023/07/25 03:55:07;;;;;;;1.00;0.80;;;24.10;95.60;;;;;;4936459;29;20447;-87
2023/07/25 03:57:35;;;;;;;1.40;1.10;;;24.10;95.30;;;;;;4936534;29;20491;-87
2023/07/25 04:00:04;;;;;;;1.33;1.00;;;24.10;95.20;;;;;;4936532;29;20451;-86
2023/07/25 04:02:31;;;;;;;1.37;1.07;;;24.10;95.30;;;;;;4936521;29;20471;-86
2023/07/25 04:04:58;;;;;;;1.20;0.97;;;24.10;95.30;;;;;;4936542;29;20470;-86
2023/07/25 04:07:25;;;;;;;1.37;1.10;;;24.10;95.60;;;;;;4938815;29;20469;-87
2023/07/25 04:09:59;;;;;;;1.73;0.90;;;24.10;95.30;;;;;;4934674;29;20474;-87
2023/07/25 04:12:26;;;;;;;1.10;0.90;;;24.20;95.20;;;;;;4931328;29;20438;-86
2023/07/25 04:14:53;;;;;;;1.20;1.00;;;24.10;95.40;;;;;;4935890;29;20517;-87
2023/07/25 04:17:21;;;;;;;1.00;0.80;;;24.10;95.30;;;;;;4936103;29;20497;-87
2023/07/25 04:19:48;;;;;;;2.17;1.00;;;24.10;95.30;;;;;;4935845;29;20447;-87
2023/07/25 04:22:15;;;;;;;1.10;0.93;;;24.10;95.30;;;;;;4936099;29;20454;-86
2023/07/25 04:24:41;;;;;;;3.83;1.23;;;24.20;95.30;;;;;;4936451;29;20553;-86
2023/07/25 04:27:08;;;;;;;1.33;1.07;;;24.00;95.40;;;;;;4936299;29;20453;-86
2023/07/25 04:29:35;;;;;;;2.83;0.93;;;24.10;95.40;;;;;;4936162;29;20445;-87
2023/07/25 04:32:02;;;;;;;2.93;1.10;;;24.00;95.30;;;;;;4936056;29;21025;-86
2023/07/25 04:34:30;;;;;;;2.27;1.40;;;24.00;95.40;;;;;;4935949;29;20455;-85
2023/07/25 04:36:57;;;;;;;1.60;1.40;;;24.00;95.30;;;;;;4935764;29;20599;-85
2023/07/25 04:39:24;;;;;;;3.20;1.57;;;24.00;95.30;;;;;;4935490;29;20449;-86
2023/07/25 04:41:50;;;;;;;2.50;1.60;;;24.00;95.30;;;;;;4935623;29;20894;-85
2023/07/25 04:44:17;;;;;;;3.90;1.83;;;24.10;95.20;;;;;;4935876;29;20480;-86
2023/07/25 04:46:44;;;;;;;3.73;2.03;;;24.10;93.90;;;;;;4935754;29;20482;-86
2023/07/25 04:49:11;;;;;;;3.87;2.93;;;23.90;93.70;;;;;;4935964;29;20452;-85
2023/07/25 04:51:39;;;;;;;6.00;2.33;;;23.60;93.70;;;;;;4935981;29;20454;-85
2023/07/25 04:54:06;;;;;;;3.37;2.13;;;23.40;93.80;;;;;;4935802;29;20453;-85
2023/07/25 04:56:33;;;;;;;4.50;2.07;;;23.30;94.00;;;;;;4935916;29;20506;-87
2023/07/25 04:58:59;;;;;;;5.83;2.13;;;23.20;94.20;;;;;;4935680;29;20457;-85
2023/07/25 05:01:26;;;;;;;4.13;2.40;;;23.20;94.40;;;;;;4935045;29;20970;-86
2023/07/25 05:03:53;;;;;;;3.60;1.80;;;23.20;94.50;;;;;;4935717;29;20454;-85
2023/07/25 05:06:20;;;;;;;1.63;1.40;;;23.30;94.70;;;;;;4935365;29;20449;-85
2023/07/25 05:08:48;;;;;;;2.00;1.50;;;23.40;94.90;;;;;;4935620;29;20485;-85
2023/07/25 05:11:14;;;;;;;1.83;1.73;;;23.40;94.80;;;;;;4935155;29;20958;-85
2023/07/25 05:13:41;;;;;;;2.77;1.70;;;23.50;94.80;;;;;;4935944;29;20471;-86
2023/07/25 05:16:08;;;;;;;2.40;1.57;;;23.50;94.90;;;;;;4935258;29;20500;-85
2023/07/25 05:18:35;;;;;;;2.93;1.43;;;23.60;94.80;;;;;;4935807;29;20453;-86
2023/07/25 05:21:01;;;;;;;1.50;1.40;;;23.60;94.80;;;;;;4935631;29;20470;-86
2023/07/25 05:23:28;;;;;;;1.50;1.40;;;23.60;94.90;;;;;;4935401;29;20458;-85
2023/07/25 05:25:56;;;;;;;2.60;1.60;;;23.70;95.00;;;;;;4935932;29;20463;-85
2023/07/25 05:28:24;;;;;;;1.60;1.40;;;23.70;94.90;;;;;;4938763;29;20449;-88
2023/07/25 05:30:51;;;;;;;1.97;1.57;;;23.80;94.90;;;;;;4937264;29;20439;-86
2023/07/25 05:33:17;;;;;;;3.00;1.47;;;23.80;94.80;;;;;;4936925;29;20454;-86
2023/07/25 05:35:44;;;;;;;1.70;1.37;;;23.80;94.90;;;;;;4937285;29;20448;-87
2023/07/25 05:38:11;;;;;;;4.07;2.03;;;23.80;94.90;;;;;;4937162;29;20499;-86
2023/07/25 05:40:38;;;;;;;3.40;1.60;;;23.80;94.90;;;;;;4937350;29;20496;-86
2023/07/25 05:43:06;;;;;;;2.33;1.43;;;23.80;94.90;;;;;;4938432;29;20802;-87
2023/07/25 05:45:33;;;;;;;1.57;1.43;;;23.80;94.90;;;;;;4938293;29;20470;-87
2023/07/25 05:47:59;;;;;;;3.00;1.40;;;23.80;94.80;;;;;;4937456;29;20443;-87
2023/07/25 05:50:26;;;;;;;4.07;1.60;;;23.90;94.90;;;;;;4938228;29;20457;-87
2023/07/25 05:52:53;;;;;;;2.90;1.60;;;23.90;94.90;;;;;;4938197;29;20465;-87
2023/07/25 05:55:20;;;;;;;5.00;1.37;;;23.90;94.70;;;;;;4938153;29;20447;-87
2023/07/25 05:57:47;;;;;;;1.50;1.30;;;23.90;94.70;;;;;;4938150;29;21015;-87
2023/07/25 06:00:16;;;;;;;2.93;1.87;;;23.90;94.80;;;;;;4938158;29;20472;-87
2023/07/25 06:02:42;;;;;;;2.33;1.70;;;23.90;94.80;;;;;;4938123;29;20453;-87
2023/07/25 06:05:09;;;;;;;2.27;1.37;;;23.90;94.90;;;;;;4937725;29;20457;-86
2023/07/25 06:07:36;;;;;;;4.63;1.77;;;23.90;95.10;;;;;;4937009;29;20886;-86
2023/07/25 06:10:03;;;;;;;1.73;1.30;;;23.90;95.00;;;;;;4937702;29;20447;-87
2023/07/25 06:12:30;;;;;;;1.67;1.30;;;23.90;95.00;;;;;;4938032;29;20447;-87
2023/07/25 06:14:57;;;;;;;2.80;1.47;;;24.00;95.00;;;;;;4937984;29;20979;-87
2023/07/25 06:17:25;;;;;;;1.60;1.23;;;24.00;95.30;;;;;;4937876;29;20490;-87
2023/07/25 06:19:52;;;;;;;1.57;1.30;;;24.00;95.20;;;;;;4937971;29;20458;-86
2023/07/25 06:22:19;;;;;;;1.30;1.20;;;24.00;95.10;;;;;;4937716;29;20447;-87
2023/07/25 06:24:47;;;;;;;3.67;1.57;;;24.00;95.10;;;;;;4937684;29;20447;-87
2023/07/25 06:27:14;;;;;;;2.33;1.63;;;24.00;95.10;;;;;;4937553;29;20452;-87
2023/07/25 06:29:41;;;;;;;1.77;1.50;;;24.00;95.10;;;;;;4937579;29;20502;-87
2023/07/25 06:32:08;;;;;;;2.37;1.53;;;24.00;95.10;;;;;;4937540;29;20471;-87
2023/07/25 06:34:36;;;;;;;1.50;1.33;;;24.00;95.00;;;;;;4937701;29;20458;-87
2023/07/25 06:37:03;;;;;;;1.97;1.20;;;24.00;95.00;;;;;;4938217;29;20587;-86
2023/07/25 06:39:30;;;;;;;1.50;1.40;;;24.00;95.00;;;;;;4937814;29;20534;-87
2023/07/25 06:41:56;;;;;;;2.37;1.33;;;24.10;95.00;;;;;;4937583;29;20536;-86
2023/07/25 06:44:23;;;;;;;3.60;1.80;;;24.10;94.90;;;;;;4937533;29;20450;-86
2023/07/25 06:46:50;;;;;;;2.63;1.60;;;24.10;94.90;;;;;;4937342;29;20462;-87
2023/07/25 06:49:17;;;;;;;1.93;1.37;;;24.00;94.90;;;;;;4937394;29;20545;-87
2023/07/25 06:51:45;;;;;;;2.50;1.60;;;24.00;95.00;;;;;;4937286;29;20482;-86
2023/07/25 06:54:12;;;;;;;1.63;1.53;;;24.00;94.90;;;;;;4937475;29;20456;-87
2023/07/25 06:56:39;;;;;;;3.03;1.50;;;24.00;94.90;;;;;;4936955;29;20569;-86
2023/07/25 06:59:05;;;;;;;1.80;1.30;;;24.00;95.10;;;;;;4937219;29;20451;-86
2023/07/25 07:01:35;;;;;;;1.30;1.07;;;24.10;95.10;;;;;;4936935;29;20464;-87
2023/07/25 07:04:01;;;;;;;1.50;1.10;;;24.00;95.00;;;;;;4937153;29;20822;-87
2023/07/25 07:06:28;;;;;;;1.87;1.30;;;24.00;94.90;;;;;;4937014;29;20466;-86
2023/07/25 07:08:56;;;;;;;2.17;1.10;;;24.10;94.80;;;;;;4936601;29;20477;-86
2023/07/25 07:11:23;;;;;;;1.10;0.90;;;24.10;94.90;;;;;;4936978;29;20530;-86
2023/07/25 07:13:50;;;;;;;1.70;1.47;;;24.10;95.10;;;;;;4937310;29;20454;-87
2023/07/25 07:16:17;;;;;;;1.70;1.40;;;24.10;95.10;;;;;;4936853;29;20554;-87
2023/07/25 07:18:45;;;;;;;2.57;1.30;;;24.10;94.90;;;;;;4936803;29;20887;-87
2023/07/25 07:21:12;;;;;;;1.10;1.00;;;24.10;94.80;;;;;;4937128;29;20454;-86
2023/07/25 07:23:39;;;;;;;2.70;1.70;;;24.10;94.80;;;;;;4936831;29;20951;-86
2023/07/25 07:26:07;;;;;;;2.00;1.10;;;24.10;94.90;;;;;;4937174;29;20458;-86
2023/07/25 07:28:34;;;;;;;1.20;1.10;;;24.10;95.20;;;;;;4936850;29;20497;-87
2023/07/25 07:31:00;;;;;;;1.10;1.00;;;24.10;94.90;;;;;;4936750;29;20454;-87
2023/07/25 07:33:27;;;;;;;1.10;1.00;;;24.20;95.00;;;;;;4936573;29;20446;-86
2023/07/25 07:35:54;;;;;;;1.93;1.07;;;24.20;94.90;;;;;;4936928;29;20464;-88
2023/07/25 07:38:21;;;;;;;1.57;1.33;;;24.20;95.00;;;;;;4936507;29;20589;-87
2023/07/25 07:40:48;;;;;;;1.27;1.17;;;24.20;95.10;;;;;;4936740;29;20450;-86
2023/07/25 07:43:16;;;;;;;1.40;1.10;;;24.20;94.90;;;;;;4936461;29;20447;-87
2023/07/25 07:45:43;;;;;;;2.50;1.20;;;24.20;94.80;;;;;;4936766;29;20517;-87
2023/07/25 07:48:10;;;;;;;1.43;1.07;;;24.20;94.80;;;;;;4936335;29;20454;-87
2023/07/25 07:50:37;;;;;;;1.27;1.17;;;24.20;94.80;;;;;;4936158;29;20541;-87
2023/07/25 07:53:04;;;;;;;3.77;1.00;;;24.20;94.90;;;;;;4936504;29;20542;-86
2023/07/25 07:55:30;;;;;;;2.00;1.30;;;24.20;95.00;;;;;;4936542;29;20453;-87
2023/07/25 07:57:57;;;;;;;1.60;1.17;;;24.20;94.90;;;;;;4936321;29;20494;-87
2023/07/25 08:00:26;;;;;;;1.10;1.00;;;24.20;95.00;;;;;;4936282;29;20942;-86
2023/07/25 08:02:52;;;;;;;1.50;1.40;;;24.20;94.90;;;;;;4936267;29;20547;-86
2023/07/25 08:05:19;;;;;;;1.10;1.00;;;24.20;94.90;;;;;;4936561;29;20448;-87
2023/07/25 08:07:46;;;;;;;1.30;1.07;;;24.20;94.90;;;;;;4936140;29;20658;-86
2023/07/25 08:10:13;;;;;;;1.27;1.00;;;24.30;95.10;;;;;;4936245;29;20554;-86
2023/07/25 08:12:40;;;;;;;1.30;1.20;;;24.30;95.00;;;;;;4936148;29;20439;-87
2023/07/25 08:15:07;;;;;;;1.63;1.20;;;24.30;95.10;;;;;;4936090;29;20985;-87
2023/07/25 08:17:36;;;;;;;1.13;1.03;;;24.30;94.90;;;;;;4936063;29;20871;-87
2023/07/25 08:20:03;;;;;;;1.00;0.80;;;24.30;95.00;;;;;;4936031;29;20545;-88
2023/07/25 08:22:29;;;;;;;1.30;1.20;;;24.30;95.10;;;;;;4935961;29;20469;-89
2023/07/25 08:24:57;;;;;;;1.20;0.97;;;24.30;95.00;;;;;;4936113;29;20451;-89
2023/07/25 08:27:24;;;;;;;1.17;0.97;;;24.30;95.10;;;;;;4936178;29;20461;-89
2023/07/25 08:29:51;;;;;;;1.10;0.90;;;24.20;95.00;;;;;;4935937;29;20452;-89
2023/07/25 08:32:18;;;;;;;1.30;1.10;;;24.30;95.00;;;;;;4936076;29;20454;-88
2023/07/25 08:34:46;;;;;;;1.50;1.40;;;24.30;95.20;;;;;;4936235;29;20455;-88
2023/07/25 08:37:13;;;;;;;1.20;1.10;;;24.30;94.90;;;;;;4935836;29;20996;-88
2023/07/25 08:39:40;;;;;;;1.10;0.90;;;24.30;94.90;;;;;;4936228;29;20456;-87
2023/07/25 08:42:07;;;;;;;1.13;0.90;;;24.20;94.90;;;;;;4935748;29;20452;-88
2023/07/25 08:44:35;;;;;;;1.23;0.97;;;24.30;95.30;;;;;;4935774;29;20477;-89
2023/07/25 08:47:08;;;;;;;1.83;0.80;;;24.20;95.00;;;;;;4935779;29;20439;-89
2023/07/25 08:49:37;;;;;;;1.40;1.27;;;24.20;95.10;;;;;;4936166;29;20870;-89
2023/07/25 08:52:08;;;;;;;1.20;1.00;;;24.30;95.10;;;;;;4935937;29;20447;-89
2023/07/25 08:54:36;;;;;;;1.03;0.90;;;24.30;95.30;;;;;;4935899;29;20460;-88
2023/07/25 08:57:03;;;;;;;1.27;1.10;;;24.30;95.10;;;;;;4935770;29;20508;-89
2023/07/25 08:59:31;;;;;;;1.23;1.13;;;24.20;95.10;;;;;;4935901;29;20458;-88
2023/07/25 09:01:59;;;;;;;1.50;1.40;;;24.20;95.20;;;;;;4937300;29;20474;-87
2023/07/25 09:04:27;;;;;;;1.30;1.00;;;24.40;95.20;;;;;;4920421;29;20959;-90
2023/07/25 09:06:54;;;;;;;1.20;1.10;;;24.20;95.30;;;;;;4931109;29;20496;-88
2023/07/25 09:09:23;;;;;;;1.30;1.20;;;24.20;95.10;;;;;;4958540;29;20452;-88
2023/07/25 09:11:49;;;;;;;1.50;1.00;;;24.30;95.10;;;;;;4943145;29;20446;-88
2023/07/25 09:14:16;;;;;;;1.13;1.00;;;24.30;95.10;;;;;;4958116;29;20541;-89
2023/07/25 09:16:43;;;;;;;2.13;1.40;;;24.30;95.10;;;;;;4940387;29;20509;-89
2023/07/25 09:19:10;;;;;;;1.30;1.20;;;24.30;95.10;;;;;;4939122;29;21013;-89
2023/07/25 09:21:47;;;;;;;1.50;1.13;;;24.30;95.20;;;;;;4939450;29;20530;-88
2023/07/25 09:24:14;;;;;;;11.00;1.60;;;24.30;95.10;;;;;;4939359;29;20952;-89
2023/07/25 09:26:48;;;;;;;2.33;1.80;;;24.30;94.90;;;;;;4939247;29;20449;-88
2023/07/25 09:29:16;;;;;;;3.53;1.83;;;24.30;94.50;;;;;;4939221;29;20434;-88
2023/07/25 09:31:44;;;;;;;4.30;1.67;;;24.30;94.50;;;;;;4939060;29;20469;-89
2023/07/25 09:34:16;;;;;;;4.30;1.80;;;24.30;94.60;;;;;;4939290;29;20446;-88
2023/07/25 09:36:46;;;;;;;2.77;1.77;;;24.30;94.60;;;;;;4938978;29;20442;-91
2023/07/25 09:39:13;;;;;;;6.77;1.57;;;24.30;95.20;;;;;;4939015;29;20491;-89
2023/07/25 09:41:42;;;;;;;4.17;2.10;;;24.40;95.00;;;;;;4939040;29;20489;-90
2023/07/25 09:44:11;;;;;;;5.53;1.80;;;24.30;95.00;;;;;;4946904;29;20447;-90
2023/07/25 09:46:37;;;;;;;2.90;1.83;;;24.40;95.20;;;;;;4943304;29;20531;-88
2023/07/25 09:49:05;;;;;;;1.73;1.60;;;24.40;95.20;;;;;;4938634;29;20509;-89
2023/07/25 09:51:32;;;;;;;5.40;1.63;;;24.40;95.10;;;;;;4938609;29;21033;-89
2023/07/25 09:53:58;;;;;;;4.10;2.13;;;24.40;95.00;;;;;;4939150;29;20541;-89
2023/07/25 09:56:27;;;;;;;4.47;1.63;;;24.40;95.20;;;;;;4938596;29;20447;-91
2023/07/25 09:58:55;;;;;;;3.83;1.60;;;24.40;95.00;;;;;;4938482;29;20501;-89
2023/07/25 10:01:22;;;;;;;5.30;1.60;;;24.40;95.20;;;;;;4938380;29;20457;-88
2023/07/25 10:03:49;;;;;;;2.93;1.77;;;24.40;95.00;;;;;;4946305;29;20453;-90
2023/07/25 10:06:16;;;;;;;2.77;1.60;;;24.40;94.90;;;;;;4954760;29;20461;-89
2023/07/25 10:08:44;;;;;;;3.30;1.70;;;24.30;94.00;;;;;;4957208;29;20488;-87
2023/07/25 10:11:13;;;;;;;4.73;1.57;;;24.30;93.90;;;;;;4957317;28;20446;-88
2023/07/25 10:13:41;;;;;;;7.57;1.80;;;24.30;94.20;;;;;;4957094;29;20467;-88
2023/07/25 10:16:14;;;;;;;4.87;1.83;;;24.30;94.50;;;;;;4957322;29;20475;-89
2023/07/25 10:18:41;;;;;;;9.03;2.03;;;24.40;94.60;;;;;;4957023;29;20485;-89
2023/07/25 10:21:09;;;;;;;5.07;1.67;;;24.40;94.60;;;;;;4957319;29;20457;-91
2023/07/25 10:23:36;;;;;;;3.77;1.63;;;24.40;94.70;;;;;;4956995;29;20461;-89
2023/07/25 10:26:12;;;;;;;3.37;1.40;;;24.40;94.60;;;;;;4957161;29;20445;-89
2023/07/25 10:28:40;;;;;;;2.37;1.53;;;24.40;94.50;;;;;;4956775;29;20449;-88
2023/07/25 10:31:07;;;;;;;1.73;1.50;;;24.40;94.50;;;;;;4956940;29;20458;-90
2023/07/25 10:33:39;;;;;;;2.53;1.30;;;24.40;94.50;;;;;;4956964;29;20506;-88
2023/07/25 10:36:08;;;;;;;6.80;1.87;;;24.40;94.40;;;;;;4956864;29;20445;-88
2023/07/25 10:38:36;;;;;;;4.50;1.37;;;24.40;94.40;;;;;;4956899;29;20488;-91
2023/07/25 10:41:13;;;;;;;3.67;1.70;;;24.30;94.50;;;;;;4956727;29;20514;-88
2023/07/25 10:44:00;;;;;;;7.70;1.50;;;24.30;94.50;;;;;;4957128;29;20548;-88
2023/07/25 10:46:29;;;;;;;2.17;1.70;;;24.40;94.60;;;;;;4956668;29;20466;-90
2023/07/25 10:49:00;;;;;;;3.43;1.63;;;24.30;94.60;;;;;;4956752;29;20439;-90
2023/07/25 10:51:49;;;;;;;2.30;1.20;;;24.30;94.70;;;;;;4956730;29;20545;-89
2023/07/25 10:54:17;;;;;;;3.70;1.40;;;24.30;94.50;;;;;;4957267;29;20442;-89
2023/07/25 10:57:13;;;;;;;1.90;1.43;;;24.30;94.50;;;;;;4956938;29;20456;-89
2023/07/25 10:59:58;;;;;;;1.53;1.33;;;24.30;94.60;;;;;;4956423;29;21012;-90
2023/07/25 11:02:34;;;;;;;2.30;1.20;;;24.30;94.50;;;;;;4956858;29;20441;-89
2023/07/25 11:05:24;;;;;;;3.70;1.70;;;24.30;94.60;;;;;;4956579;29;20455;-90
2023/07/25 11:07:53;;;;;;;1.50;1.10;;;24.30;94.60;;;;;;4956470;29;20486;-88
2023/07/25 11:10:21;;;;;;;1.97;1.10;;;24.30;94.50;;;;;;4956344;29;20889;-91
2023/07/25 11:12:50;;;;;;;1.93;1.27;;;24.30;94.50;;;;;;4956337;29;20967;-90
2023/07/25 11:15:17;;;;;;;3.00;1.23;;;24.30;94.60;;;;;;4956586;29;20898;-88
2023/07/25 11:17:44;;;;;;;2.20;1.47;;;24.30;94.70;;;;;;4956028;29;20525;-90
2023/07/25 11:20:13;;;;;;;2.50;1.60;;;24.30;94.70;;;;;;4938988;29;21088;-88
2023/07/25 11:22:42;;;;;;;2.67;1.67;;;24.30;94.80;;;;;;4956178;29;20452;-88
2023/07/25 11:25:10;;;;;;;2.47;1.60;;;24.30;94.80;;;;;;4955533;29;20437;-88
2023/07/25 11:27:41;;;;;;;2.43;1.50;;;24.40;94.70;;;;;;4955966;29;20446;-88
2023/07/25 11:30:16;;;;;;;2.03;1.00;;;24.40;94.70;;;;;;4956008;29;20452;-88
2023/07/25 11:32:48;;;;;;;1.97;1.30;;;24.30;94.50;;;;;;4955920;29;20989;-88
2023/07/25 11:35:15;;;;;;;1.40;1.30;;;24.30;94.40;;;;;;4955797;29;20460;-89
2023/07/25 11:37:43;;;;;;;1.37;1.13;;;24.30;94.40;;;;;;4955861;29;20460;-89
2023/07/25 11:40:15;;;;;;;2.00;1.40;;;24.30;94.40;;;;;;4956105;29;20499;-90
2023/07/25 11:42:43;;;;;;;1.23;1.13;;;24.30;94.30;;;;;;4955888;29;21044;-88
2023/07/25 11:45:11;;;;;;;2.70;1.27;;;24.30;94.40;;;;;;4955753;29;20466;-88
2023/07/25 11:47:40;;;;;;;1.93;1.17;;;24.30;94.50;;;;;;4955749;29;20446;-90
2023/07/25 11:50:09;;;;;;;2.00;1.67;;;24.30;94.50;;;;;;4955620;29;20445;-89
2023/07/25 11:52:39;;;;;;;1.50;1.40;;;24.30;94.50;;;;;;4955820;29;20840;-89
2023/07/25 11:55:09;;;;;;;1.40;1.10;;;24.30;94.60;;;;;;4955797;29;20441;-88
2023/07/25 11:57:36;;;;;;;2.17;1.20;;;24.30;94.60;;;;;;4955694;29;20442;-89
2023/07/25 12:00:06;;;;;;;1.40;1.20;;;24.30;94.60;;;;;;4955524;29;20831;-88
2023/07/25 12:02:36;;;;;;;2.73;1.30;;;24.30;94.60;;;;;;4955563;29;20534;-88
2023/07/25 12:05:04;;;;;;;1.20;1.10;;;24.30;94.60;;;;;;4955503;29;20453;-89
2023/07/25 12:07:48;;;;;;;1.73;1.10;;;24.30;94.50;;;;;;4955433;29;20481;-88
2023/07/25 12:10:26;;;;;;;1.97;1.60;;;24.30;94.60;;;;;;4917298;29;20439;-87
2023/07/25 12:12:53;;;;;;;1.40;1.30;;;24.40;94.40;;;;;;4917062;29;20432;-88
2023/07/25 12:15:20;;;;;;;1.33;0.97;;;24.40;94.50;;;;;;4916893;29;20561;-88
2023/07/25 12:17:47;;;;;;;1.43;1.30;;;24.40;94.50;;;;;;4917033;29;20452;-89
2023/07/25 12:20:19;;;;;;;1.30;1.10;;;24.40;94.40;;;;;;4917214;29;20498;-89
2023/07/25 12:22:47;;;;;;;1.37;1.20;;;24.40;94.30;;;;;;4917160;29;20799;-87
2023/07/25 12:25:18;;;;;;;1.63;1.00;;;24.40;94.20;;;;;;4917061;29;20451;-89
2023/07/25 12:27:46;;;;;;;1.43;1.03;;;24.40;94.30;;;;;;4917062;29;20443;-88
2023/07/25 12:30:13;;;;;;;1.20;1.10;;;24.50;94.20;;;;;;4917208;29;20475;-90
2023/07/25 12:32:40;;;;;;;3.63;1.30;;;24.50;94.10;;;;;;4916565;29;20456;-91
2023/07/25 12:35:07;;;;;;;1.40;1.30;;;24.50;94.00;;;;;;4917451;29;20443;-88
2023/07/25 12:37:34;;;;;;;6.00;1.43;;;24.50;93.90;;;;;;4919633;29;20449;-88
2023/07/25 12:40:01;;;;;;;1.20;1.10;;;24.50;94.00;;;;;;4919770;29;20498;-87
2023/07/25 12:42:29;;;;;;;1.37;1.13;;;24.50;93.80;;;;;;4919730;29;20489;-87
2023/07/25 12:45:01;;;;;;;2.60;1.30;;;24.50;93.70;;;;;;4920493;29;20546;-88
2023/07/25 12:47:27;;;;;;;1.10;1.00;;;24.60;93.90;;;;;;4920819;29;20437;-87
2023/07/25 12:49:54;;;;;;;2.07;1.00;;;24.50;93.80;;;;;;4920950;29;20448;-88
2023/07/25 12:52:21;;;;;;;1.20;1.07;;;24.50;93.70;;;;;;4921042;29;20455;-87